sensor_id;sensor_type;location;lat;lon;timestamp;P1;durP1;ratioP1;P2;durP2;ratioP2
71395;SDS011;59888;55.814;37.132;2023-07-20T00:01:59;3.17;;;1.25;;
71395;SDS011;59888;55.814;37.132;2023-07-20T00:04:25;7.13;;;1.33;;
71395;SDS011;59888;55.814;37.132;2023-07-20T00:06:51;5.97;;;1.75;;
71395;SDS011;59888;55.814;37.132;2023-07-20T00:09:17;2.50;;;1.10;;
71395;SDS011;59888;55.814;37.132;2023-07-20T00:11:50;1.88;;;1.42;;
71395;SDS011;59888;55.814;37.132;2023-07-20T00:14:17;1.55;;;1.00;;
71395;SDS011;59888;55.814;37.132;2023-07-20T00:16:47;3.30;;;1.17;;
71395;SDS011;59888;55.814;37.132;2023-07-20T00:19:22;2.60;;;1.17;;
71395;SDS011;59888;55.814;37.132;2023-07-20T00:21:50;2.45;;;1.00;;
71395;SDS011;59888;55.814;37.132;2023-07-20T00:24:16;2.67;;;1.20;;
71395;SDS011;59888;55.814;37.132;2023-07-20T00:26:43;3.03;;;1.23;;
71395;SDS011;59888;55.814;37.132;2023-07-20T00:29:09;2.22;;;1.20;;
71395;SDS011;59888;55.814;37.132;2023-07-20T00:31:35;4.88;;;1.10;;
71395;SDS011;59888;55.814;37.132;2023-07-20T00:34:05;1.75;;;1.08;;
71395;SDS011;59888;55.814;37.132;2023-07-20T00:36:32;4.22;;;1.15;;
71395;SDS011;59888;55.814;37.132;2023-07-20T00:39:02;1.55;;;0.90;;
71395;SDS011;59888;55.814;37.132;2023-07-20T00:41:29;3.20;;;1.20;;
71395;SDS011;59888;55.814;37.132;2023-07-20T00:44:01;3.78;;;1.10;;
71395;SDS011;59888;55.814;37.132;2023-07-20T00:46:27;1.85;;;1.10;;
71395;SDS011;59888;55.814;37.132;2023-07-20T00:48:53;3.85;;;1.10;;
71395;SDS011;59888;55.814;37.132;2023-07-20T00:51:20;2.95;;;1.13;;
71395;SDS011;59888;55.814;37.132;2023-07-20T00:53:47;3.60;;;1.25;;
71395;SDS011;59888;55.814;37.132;2023-07-20T00:56:15;3.40;;;1.52;;
71395;SDS011;59888;55.814;37.132;2023-07-20T00:58:42;5.25;;;1.20;;
71395;SDS011;59888;55.814;37.132;2023-07-20T01:01:08;7.35;;;1.00;;
71395;SDS011;59888;55.814;37.132;2023-07-20T01:03:34;4.75;;;1.08;;
71395;SDS011;59888;55.814;37.132;2023-07-20T01:06:24;1.98;;;1.20;;
71395;SDS011;59888;55.814;37.132;2023-07-20T01:09:13;3.53;;;1.10;;
71395;SDS011;59888;55.814;37.132;2023-07-20T01:14:32;3.53;;;1.10;;
71395;SDS011;59888;55.814;37.132;2023-07-20T01:16:59;4.85;;;1.15;;
71395;SDS011;59888;55.814;37.132;2023-07-20T01:19:25;6.95;;;1.20;;
71395;SDS011;59888;55.814;37.132;2023-07-20T01:22:43;3.50;;;1.17;;
71395;SDS011;59888;55.814;37.132;2023-07-20T01:32:57;4.72;;;1.17;;
71395;SDS011;59888;55.814;37.132;2023-07-20T01:35:30;7.00;;;1.05;;
71395;SDS011;59888;55.814;37.132;2023-07-20T01:37:57;2.40;;;0.98;;
71395;SDS011;59888;55.814;37.132;2023-07-20T01:40:25;3.83;;;1.00;;
71395;SDS011;59888;55.814;37.132;2023-07-20T01:42:57;2.58;;;0.90;;
71395;SDS011;59888;55.814;37.132;2023-07-20T01:45:23;4.75;;;1.00;;
71395;SDS011;59888;55.814;37.132;2023-07-20T01:47:50;2.45;;;1.10;;
71395;SDS011;59888;55.814;37.132;2023-07-20T01:50:16;2.67;;;1.10;;
71395;SDS011;59888;55.814;37.132;2023-07-20T01:52:58;3.17;;;1.00;;
71395;SDS011;59888;55.814;37.132;2023-07-20T01:55:28;2.73;;;1.07;;
71395;SDS011;59888;55.814;37.132;2023-07-20T01:57:54;3.63;;;1.08;;
71395;SDS011;59888;55.814;37.132;2023-07-20T02:00:21;3.55;;;1.10;;
71395;SDS011;59888;55.814;37.132;2023-07-20T02:02:50;2.15;;;0.90;;
71395;SDS011;59888;55.814;37.132;2023-07-20T02:05:16;3.53;;;1.10;;
71395;SDS011;59888;55.814;37.132;2023-07-20T02:07:43;1.83;;;0.90;;
71395;SDS011;59888;55.814;37.132;2023-07-20T02:10:09;5.05;;;1.08;;
71395;SDS011;59888;55.814;37.132;2023-07-20T02:12:42;4.30;;;1.10;;
71395;SDS011;59888;55.814;37.132;2023-07-20T02:15:09;3.22;;;1.10;;
71395;SDS011;59888;55.814;37.132;2023-07-20T02:17:36;4.43;;;1.02;;
71395;SDS011;59888;55.814;37.132;2023-07-20T02:20:23;2.95;;;0.90;;
71395;SDS011;59888;55.814;37.132;2023-07-20T02:22:49;2.25;;;1.02;;
71395;SDS011;59888;55.814;37.132;2023-07-20T02:25:15;3.10;;;1.02;;
71395;SDS011;59888;55.814;37.132;2023-07-20T02:27:42;4.00;;;1.20;;
71395;SDS011;59888;55.814;37.132;2023-07-20T02:30:08;4.13;;;1.20;;
71395;SDS011;59888;55.814;37.132;2023-07-20T02:32:36;5.38;;;1.15;;
71395;SDS011;59888;55.814;37.132;2023-07-20T02:35:03;3.83;;;0.90;;
71395;SDS011;59888;55.814;37.132;2023-07-20T02:37:32;3.15;;;0.98;;
71395;SDS011;59888;55.814;37.132;2023-07-20T02:39:58;3.78;;;1.00;;
71395;SDS011;59888;55.814;37.132;2023-07-20T02:42:25;3.72;;;1.17;;
71395;SDS011;59888;55.814;37.132;2023-07-20T02:44:52;1.90;;;0.93;;
71395;SDS011;59888;55.814;37.132;2023-07-20T02:47:18;2.05;;;1.00;;
71395;SDS011;59888;55.814;37.132;2023-07-20T02:49:45;4.68;;;1.05;;
71395;SDS011;59888;55.814;37.132;2023-07-20T02:52:11;3.45;;;1.15;;
71395;SDS011;59888;55.814;37.132;2023-07-20T02:54:37;2.70;;;0.93;;
71395;SDS011;59888;55.814;37.132;2023-07-20T02:57:03;5.93;;;0.80;;
71395;SDS011;59888;55.814;37.132;2023-07-20T02:59:30;3.58;;;0.82;;
71395;SDS011;59888;55.814;37.132;2023-07-20T03:01:59;2.22;;;1.15;;
71395;SDS011;59888;55.814;37.132;2023-07-20T03:04:28;8.27;;;1.13;;
71395;SDS011;59888;55.814;37.132;2023-07-20T03:06:54;3.90;;;0.82;;
71395;SDS011;59888;55.814;37.132;2023-07-20T03:09:20;7.90;;;1.45;;
71395;SDS011;59888;55.814;37.132;2023-07-20T03:11:49;2.47;;;0.95;;
71395;SDS011;59888;55.814;37.132;2023-07-20T03:14:21;2.63;;;1.13;;
71395;SDS011;59888;55.814;37.132;2023-07-20T03:16:49;5.18;;;1.15;;
71395;SDS011;59888;55.814;37.132;2023-07-20T03:19:20;5.05;;;0.90;;
71395;SDS011;59888;55.814;37.132;2023-07-20T03:21:47;3.95;;;0.90;;
71395;SDS011;59888;55.814;37.132;2023-07-20T03:24:14;4.25;;;1.08;;
71395;SDS011;59888;55.814;37.132;2023-07-20T03:26:40;2.97;;;0.80;;
71395;SDS011;59888;55.814;37.132;2023-07-20T03:29:07;5.18;;;0.90;;
71395;SDS011;59888;55.814;37.132;2023-07-20T03:31:34;2.50;;;0.80;;
71395;SDS011;59888;55.814;37.132;2023-07-20T03:34:01;5.10;;;0.95;;
71395;SDS011;59888;55.814;37.132;2023-07-20T03:36:27;0.90;;;0.65;;
71395;SDS011;59888;55.814;37.132;2023-07-20T03:38:57;2.78;;;1.13;;
71395;SDS011;59888;55.814;37.132;2023-07-20T03:41:26;2.08;;;1.30;;
71395;SDS011;59888;55.814;37.132;2023-07-20T03:43:57;4.90;;;1.00;;
71395;SDS011;59888;55.814;37.132;2023-07-20T03:46:23;2.88;;;0.88;;
71395;SDS011;59888;55.814;37.132;2023-07-20T03:48:49;3.47;;;0.93;;
71395;SDS011;59888;55.814;37.132;2023-07-20T03:51:15;5.00;;;1.00;;
71395;SDS011;59888;55.814;37.132;2023-07-20T03:53:49;2.10;;;0.90;;
71395;SDS011;59888;55.814;37.132;2023-07-20T03:56:33;1.23;;;0.70;;
71395;SDS011;59888;55.814;37.132;2023-07-20T03:59:08;2.35;;;0.90;;
71395;SDS011;59888;55.814;37.132;2023-07-20T04:01:37;3.92;;;0.85;;
71395;SDS011;59888;55.814;37.132;2023-07-20T04:04:08;3.65;;;0.90;;
71395;SDS011;59888;55.814;37.132;2023-07-20T04:06:34;2.60;;;1.00;;
71395;SDS011;59888;55.814;37.132;2023-07-20T04:09:00;1.75;;;0.80;;
71395;SDS011;59888;55.814;37.132;2023-07-20T04:11:27;3.78;;;0.90;;
71395;SDS011;59888;55.814;37.132;2023-07-20T04:13:53;2.78;;;0.88;;
71395;SDS011;59888;55.814;37.132;2023-07-20T04:16:19;4.32;;;0.85;;
71395;SDS011;59888;55.814;37.132;2023-07-20T04:18:45;2.08;;;0.88;;
71395;SDS011;59888;55.814;37.132;2023-07-20T04:21:13;2.70;;;0.70;;
71395;SDS011;59888;55.814;37.132;2023-07-20T04:23:39;1.65;;;0.80;;
71395;SDS011;59888;55.814;37.132;2023-07-20T04:26:05;2.40;;;0.90;;
71395;SDS011;59888;55.814;37.132;2023-07-20T04:28:32;2.65;;;1.20;;
71395;SDS011;59888;55.814;37.132;2023-07-20T04:31:15;4.55;;;0.88;;
71395;SDS011;59888;55.814;37.132;2023-07-20T04:33:52;1.80;;;0.90;;
71395;SDS011;59888;55.814;37.132;2023-07-20T04:36:18;2.92;;;0.88;;
71395;SDS011;59888;55.814;37.132;2023-07-20T04:38:45;2.08;;;0.80;;
71395;SDS011;59888;55.814;37.132;2023-07-20T04:41:16;1.52;;;0.80;;
71395;SDS011;59888;55.814;37.132;2023-07-20T04:43:46;3.30;;;1.00;;
71395;SDS011;59888;55.814;37.132;2023-07-20T04:46:17;1.88;;;0.85;;
71395;SDS011;59888;55.814;37.132;2023-07-20T04:48:45;3.95;;;0.73;;
71395;SDS011;59888;55.814;37.132;2023-07-20T04:51:11;4.43;;;0.82;;
71395;SDS011;59888;55.814;37.132;2023-07-20T04:53:39;3.40;;;0.93;;
71395;SDS011;59888;55.814;37.132;2023-07-20T04:56:06;2.83;;;0.90;;
71395;SDS011;59888;55.814;37.132;2023-07-20T04:58:34;1.63;;;0.73;;
71395;SDS011;59888;55.814;37.132;2023-07-20T05:01:00;2.30;;;0.90;;
71395;SDS011;59888;55.814;37.132;2023-07-20T05:03:27;1.35;;;0.80;;
71395;SDS011;59888;55.814;37.132;2023-07-20T05:05:54;6.93;;;0.98;;
71395;SDS011;59888;55.814;37.132;2023-07-20T05:08:20;2.50;;;0.80;;
71395;SDS011;59888;55.814;37.132;2023-07-20T05:10:47;2.40;;;1.10;;
71395;SDS011;59888;55.814;37.132;2023-07-20T05:13:14;4.35;;;0.70;;
71395;SDS011;59888;55.814;37.132;2023-07-20T05:15:40;3.08;;;0.80;;
71395;SDS011;59888;55.814;37.132;2023-07-20T05:18:11;2.33;;;0.80;;
71395;SDS011;59888;55.814;37.132;2023-07-20T05:20:37;2.72;;;0.90;;
71395;SDS011;59888;55.814;37.132;2023-07-20T05:23:03;1.58;;;0.70;;
71395;SDS011;59888;55.814;37.132;2023-07-20T05:25:29;2.40;;;0.80;;
71395;SDS011;59888;55.814;37.132;2023-07-20T05:27:55;2.33;;;0.70;;
71395;SDS011;59888;55.814;37.132;2023-07-20T05:30:21;3.15;;;0.82;;
71395;SDS011;59888;55.814;37.132;2023-07-20T05:32:47;2.80;;;0.70;;
71395;SDS011;59888;55.814;37.132;2023-07-20T05:35:17;1.77;;;0.70;;
71395;SDS011;59888;55.814;37.132;2023-07-20T05:37:44;1.98;;;0.70;;
71395;SDS011;59888;55.814;37.132;2023-07-20T05:40:11;2.72;;;0.85;;
71395;SDS011;59888;55.814;37.132;2023-07-20T05:42:38;3.88;;;0.90;;
71395;SDS011;59888;55.814;37.132;2023-07-20T05:45:04;3.38;;;1.00;;
71395;SDS011;59888;55.814;37.132;2023-07-20T05:47:31;1.08;;;0.63;;
71395;SDS011;59888;55.814;37.132;2023-07-20T05:49:57;2.35;;;0.82;;
71395;SDS011;59888;55.814;37.132;2023-07-20T05:52:23;2.33;;;0.63;;
71395;SDS011;59888;55.814;37.132;2023-07-20T05:54:49;5.38;;;0.60;;
71395;SDS011;59888;55.814;37.132;2023-07-20T05:57:15;4.85;;;0.80;;
71395;SDS011;59888;55.814;37.132;2023-07-20T05:59:42;1.02;;;0.60;;
71395;SDS011;59888;55.814;37.132;2023-07-20T06:02:10;2.50;;;0.80;;
71395;SDS011;59888;55.814;37.132;2023-07-20T06:04:37;3.08;;;0.73;;
71395;SDS011;59888;55.814;37.132;2023-07-20T06:07:04;3.42;;;0.65;;
71395;SDS011;59888;55.814;37.132;2023-07-20T06:09:30;2.10;;;0.60;;
71395;SDS011;59888;55.814;37.132;2023-07-20T06:11:57;4.20;;;0.60;;
71395;SDS011;59888;55.814;37.132;2023-07-20T06:14:23;1.13;;;0.52;;
71395;SDS011;59888;55.814;37.132;2023-07-20T06:16:49;1.35;;;0.60;;
71395;SDS011;59888;55.814;37.132;2023-07-20T06:19:15;2.88;;;0.60;;
71395;SDS011;59888;55.814;37.132;2023-07-20T06:21:44;2.45;;;0.50;;
71395;SDS011;59888;55.814;37.132;2023-07-20T06:24:10;3.60;;;0.73;;
71395;SDS011;59888;55.814;37.132;2023-07-20T06:26:36;4.72;;;0.70;;
71395;SDS011;59888;55.814;37.132;2023-07-20T06:29:05;3.13;;;0.60;;
71395;SDS011;59888;55.814;37.132;2023-07-20T06:31:37;2.40;;;0.63;;
71395;SDS011;59888;55.814;37.132;2023-07-20T06:34:04;2.95;;;0.70;;
71395;SDS011;59888;55.814;37.132;2023-07-20T06:36:30;3.17;;;0.60;;
71395;SDS011;59888;55.814;37.132;2023-07-20T06:38:56;3.55;;;0.70;;
71395;SDS011;59888;55.814;37.132;2023-07-20T06:41:22;0.57;;;0.45;;
71395;SDS011;59888;55.814;37.132;2023-07-20T06:43:48;3.53;;;0.60;;
71395;SDS011;59888;55.814;37.132;2023-07-20T06:46:17;2.70;;;0.80;;
71395;SDS011;59888;55.814;37.132;2023-07-20T06:48:44;1.73;;;0.70;;
71395;SDS011;59888;55.814;37.132;2023-07-20T06:51:10;1.83;;;0.80;;
71395;SDS011;59888;55.814;37.132;2023-07-20T06:53:36;2.92;;;0.82;;
71395;SDS011;59888;55.814;37.132;2023-07-20T06:56:02;3.00;;;0.93;;
71395;SDS011;59888;55.814;37.132;2023-07-20T06:58:28;5.25;;;1.00;;
71395;SDS011;59888;55.814;37.132;2023-07-20T07:00:54;4.13;;;0.90;;
71395;SDS011;59888;55.814;37.132;2023-07-20T07:03:20;2.00;;;0.80;;
71395;SDS011;59888;55.814;37.132;2023-07-20T07:05:47;2.85;;;0.80;;
71395;SDS011;59888;55.814;37.132;2023-07-20T07:08:13;1.63;;;0.60;;
71395;SDS011;59888;55.814;37.132;2023-07-20T07:10:39;1.60;;;0.70;;
71395;SDS011;59888;55.814;37.132;2023-07-20T07:13:05;1.90;;;0.70;;
71395;SDS011;59888;55.814;37.132;2023-07-20T07:15:31;1.60;;;0.70;;
71395;SDS011;59888;55.814;37.132;2023-07-20T07:17:57;0.85;;;0.50;;
71395;SDS011;59888;55.814;37.132;2023-07-20T07:20:24;2.08;;;1.00;;
71395;SDS011;59888;55.814;37.132;2023-07-20T07:22:52;4.05;;;1.20;;
71395;SDS011;59888;55.814;37.132;2023-07-20T07:25:18;2.63;;;0.80;;
71395;SDS011;59888;55.814;37.132;2023-07-20T07:27:44;5.65;;;1.70;;
71395;SDS011;59888;55.814;37.132;2023-07-20T07:30:10;3.33;;;1.23;;
71395;SDS011;59888;55.814;37.132;2023-07-20T07:32:37;3.55;;;1.20;;
71395;SDS011;59888;55.814;37.132;2023-07-20T07:35:03;3.30;;;0.90;;
71395;SDS011;59888;55.814;37.132;2023-07-20T07:37:35;2.63;;;0.90;;
71395;SDS011;59888;55.814;37.132;2023-07-20T07:40:02;3.78;;;0.90;;
71395;SDS011;59888;55.814;37.132;2023-07-20T07:42:30;3.20;;;1.13;;
71395;SDS011;59888;55.814;37.132;2023-07-20T07:44:56;6.97;;;1.10;;
71395;SDS011;59888;55.814;37.132;2023-07-20T07:47:22;1.90;;;0.70;;
71395;SDS011;59888;55.814;37.132;2023-07-20T07:49:48;1.45;;;0.65;;
71395;SDS011;59888;55.814;37.132;2023-07-20T07:52:15;2.90;;;0.73;;
71395;SDS011;59888;55.814;37.132;2023-07-20T07:54:41;6.25;;;0.98;;
71395;SDS011;59888;55.814;37.132;2023-07-20T07:57:07;2.05;;;0.75;;
71395;SDS011;59888;55.814;37.132;2023-07-20T07:59:33;2.50;;;0.73;;
71395;SDS011;59888;55.814;37.132;2023-07-20T08:02:06;1.55;;;0.70;;
71395;SDS011;59888;55.814;37.132;2023-07-20T08:04:32;4.03;;;0.80;;
71395;SDS011;59888;55.814;37.132;2023-07-20T08:06:59;2.03;;;0.80;;
71395;SDS011;59888;55.814;37.132;2023-07-20T08:09:25;5.47;;;0.90;;
71395;SDS011;59888;55.814;37.132;2023-07-20T08:11:51;2.47;;;0.70;;
71395;SDS011;59888;55.814;37.132;2023-07-20T08:14:17;1.30;;;0.80;;
71395;SDS011;59888;55.814;37.132;2023-07-20T08:16:44;1.25;;;0.70;;
71395;SDS011;59888;55.814;37.132;2023-07-20T08:19:11;2.00;;;0.80;;
71395;SDS011;59888;55.814;37.132;2023-07-20T08:21:37;3.47;;;0.80;;
71395;SDS011;59888;55.814;37.132;2023-07-20T08:24:03;4.43;;;0.73;;
71395;SDS011;59888;55.814;37.132;2023-07-20T08:26:29;4.30;;;0.80;;
71395;SDS011;59888;55.814;37.132;2023-07-20T08:28:55;2.75;;;0.82;;
71395;SDS011;59888;55.814;37.132;2023-07-20T08:31:21;3.67;;;0.90;;
71395;SDS011;59888;55.814;37.132;2023-07-20T08:33:47;7.72;;;0.93;;
71395;SDS011;59888;55.814;37.132;2023-07-20T08:36:14;5.82;;;1.02;;
71395;SDS011;59888;55.814;37.132;2023-07-20T08:38:40;1.85;;;0.80;;
71395;SDS011;59888;55.814;37.132;2023-07-20T08:41:06;3.10;;;1.02;;
71395;SDS011;59888;55.814;37.132;2023-07-20T08:43:33;2.50;;;0.93;;
71395;SDS011;59888;55.814;37.132;2023-07-20T08:46:01;2.35;;;0.93;;
71395;SDS011;59888;55.814;37.132;2023-07-20T08:48:28;4.50;;;0.80;;
71395;SDS011;59888;55.814;37.132;2023-07-20T08:50:56;2.47;;;0.90;;
71395;SDS011;59888;55.814;37.132;2023-07-20T08:53:25;2.47;;;0.88;;
71395;SDS011;59888;55.814;37.132;2023-07-20T08:55:53;4.90;;;0.93;;
71395;SDS011;59888;55.814;37.132;2023-07-20T08:58:20;3.95;;;1.00;;
71395;SDS011;59888;55.814;37.132;2023-07-20T09:00:49;3.13;;;1.02;;
71395;SDS011;59888;55.814;37.132;2023-07-20T09:03:16;3.47;;;0.90;;
71395;SDS011;59888;55.814;37.132;2023-07-20T09:05:43;3.65;;;0.90;;
71395;SDS011;59888;55.814;37.132;2023-07-20T09:08:10;4.05;;;0.98;;
71395;SDS011;59888;55.814;37.132;2023-07-20T09:10:36;3.15;;;1.00;;
71395;SDS011;59888;55.814;37.132;2023-07-20T09:13:02;8.10;;;1.27;;
71395;SDS011;59888;55.814;37.132;2023-07-20T09:15:29;4.45;;;1.20;;
71395;SDS011;59888;55.814;37.132;2023-07-20T09:17:55;4.93;;;1.00;;
71395;SDS011;59888;55.814;37.132;2023-07-20T09:20:21;3.35;;;1.08;;
71395;SDS011;59888;55.814;37.132;2023-07-20T09:22:48;7.40;;;1.27;;
71395;SDS011;59888;55.814;37.132;2023-07-20T09:25:16;2.85;;;0.90;;
71395;SDS011;59888;55.814;37.132;2023-07-20T09:27:46;2.15;;;1.00;;
71395;SDS011;59888;55.814;37.132;2023-07-20T09:30:14;2.58;;;0.82;;
71395;SDS011;59888;55.814;37.132;2023-07-20T09:32:42;1.50;;;0.90;;
71395;SDS011;59888;55.814;37.132;2023-07-20T09:35:15;2.17;;;0.90;;
71395;SDS011;59888;55.814;37.132;2023-07-20T09:37:54;4.05;;;0.90;;
71395;SDS011;59888;55.814;37.132;2023-07-20T09:40:24;2.60;;;1.10;;
71395;SDS011;59888;55.814;37.132;2023-07-20T09:42:51;1.70;;;0.90;;
71395;SDS011;59888;55.814;37.132;2023-07-20T09:45:30;2.67;;;1.00;;
71395;SDS011;59888;55.814;37.132;2023-07-20T09:48:05;2.83;;;0.90;;
71395;SDS011;59888;55.814;37.132;2023-07-20T09:50:33;2.30;;;1.10;;
71395;SDS011;59888;55.814;37.132;2023-07-20T09:53:00;3.22;;;1.10;;
71395;SDS011;59888;55.814;37.132;2023-07-20T09:55:29;3.67;;;1.05;;
71395;SDS011;59888;55.814;37.132;2023-07-20T09:57:56;1.77;;;0.80;;
71395;SDS011;59888;55.814;37.132;2023-07-20T10:00:23;2.70;;;1.08;;
71395;SDS011;59888;55.814;37.132;2023-07-20T10:02:49;5.00;;;1.17;;
71395;SDS011;59888;55.814;37.132;2023-07-20T10:05:18;4.03;;;1.25;;
71395;SDS011;59888;55.814;37.132;2023-07-20T10:07:48;4.05;;;1.27;;
71395;SDS011;59888;55.814;37.132;2023-07-20T10:10:16;4.10;;;1.40;;
71395;SDS011;59888;55.814;37.132;2023-07-20T10:12:47;2.53;;;1.02;;
71395;SDS011;59888;55.814;37.132;2023-07-20T10:15:23;3.95;;;1.05;;
71395;SDS011;59888;55.814;37.132;2023-07-20T10:20:20;3.20;;;1.20;;
71395;SDS011;59888;55.814;37.132;2023-07-20T10:22:47;2.60;;;1.15;;
71395;SDS011;59888;55.814;37.132;2023-07-20T10:25:15;3.53;;;1.05;;
71395;SDS011;59888;55.814;37.132;2023-07-20T10:27:44;2.30;;;1.08;;
71395;SDS011;59888;55.814;37.132;2023-07-20T10:30:11;2.33;;;1.10;;
71395;SDS011;59888;55.814;37.132;2023-07-20T10:32:37;4.80;;;1.20;;
71395;SDS011;59888;55.814;37.132;2023-07-20T10:35:12;3.83;;;1.23;;
71395;SDS011;59888;55.814;37.132;2023-07-20T10:38:22;3.17;;;1.10;;
71395;SDS011;59888;55.814;37.132;2023-07-20T10:40:30;3.22;;;1.30;;
71395;SDS011;59888;55.814;37.132;2023-07-20T10:43:02;4.85;;;1.35;;
71395;SDS011;59888;55.814;37.132;2023-07-20T10:45:38;5.75;;;1.40;;
71395;SDS011;59888;55.814;37.132;2023-07-20T10:48:15;6.18;;;1.20;;
71395;SDS011;59888;55.814;37.132;2023-07-20T10:50:46;1.63;;;1.00;;
71395;SDS011;59888;55.814;37.132;2023-07-20T10:53:34;2.47;;;1.02;;
71395;SDS011;59888;55.814;37.132;2023-07-20T10:56:33;2.97;;;1.20;;
71395;SDS011;59888;55.814;37.132;2023-07-20T10:58:57;2.92;;;1.10;;
71395;SDS011;59888;55.814;37.132;2023-07-20T11:01:28;2.53;;;1.13;;
71395;SDS011;59888;55.814;37.132;2023-07-20T11:03:59;3.92;;;1.20;;
71395;SDS011;59888;55.814;37.132;2023-07-20T11:06:29;2.30;;;1.10;;
71395;SDS011;59888;55.814;37.132;2023-07-20T11:11:33;2.63;;;1.10;;
71395;SDS011;59888;55.814;37.132;2023-07-20T11:14:02;3.55;;;1.48;;
71395;SDS011;59888;55.814;37.132;2023-07-20T11:16:36;3.15;;;1.50;;
71395;SDS011;59888;55.814;37.132;2023-07-20T11:19:05;3.60;;;1.20;;
71395;SDS011;59888;55.814;37.132;2023-07-20T11:21:36;4.25;;;1.10;;
71395;SDS011;59888;55.814;37.132;2023-07-20T11:24:04;2.00;;;0.95;;
71395;SDS011;59888;55.814;37.132;2023-07-20T11:26:39;3.20;;;1.00;;
71395;SDS011;59888;55.814;37.132;2023-07-20T11:29:06;2.97;;;1.45;;
71395;SDS011;59888;55.814;37.132;2023-07-20T11:31:34;2.35;;;0.93;;
71395;SDS011;59888;55.814;37.132;2023-07-20T11:34:05;3.80;;;1.20;;
71395;SDS011;59888;55.814;37.132;2023-07-20T11:36:31;2.70;;;1.42;;
71395;SDS011;59888;55.814;37.132;2023-07-20T11:38:58;4.50;;;1.85;;
71395;SDS011;59888;55.814;37.132;2023-07-20T11:41:25;4.25;;;1.75;;
71395;SDS011;59888;55.814;37.132;2023-07-20T11:43:53;5.07;;;2.42;;
71395;SDS011;59888;55.814;37.132;2023-07-20T11:46:20;5.43;;;2.85;;
71395;SDS011;59888;55.814;37.132;2023-07-20T11:48:46;6.82;;;2.83;;
71395;SDS011;59888;55.814;37.132;2023-07-20T11:51:13;4.30;;;1.83;;
71395;SDS011;59888;55.814;37.132;2023-07-20T11:53:45;1.90;;;1.10;;
71395;SDS011;59888;55.814;37.132;2023-07-20T11:56:13;3.03;;;1.38;;
71395;SDS011;59888;55.814;37.132;2023-07-20T11:58:43;2.55;;;1.35;;
71395;SDS011;59888;55.814;37.132;2023-07-20T12:01:11;2.83;;;1.30;;
71395;SDS011;59888;55.814;37.132;2023-07-20T12:03:38;5.78;;;2.17;;
71395;SDS011;59888;55.814;37.132;2023-07-20T12:06:08;3.10;;;1.25;;
71395;SDS011;59888;55.814;37.132;2023-07-20T12:08:37;3.35;;;1.48;;
71395;SDS011;59888;55.814;37.132;2023-07-20T12:11:05;4.13;;;1.20;;
71395;SDS011;59888;55.814;37.132;2023-07-20T12:13:42;3.53;;;1.40;;
71395;SDS011;59888;55.814;37.132;2023-07-20T12:16:13;3.03;;;1.30;;
71395;SDS011;59888;55.814;37.132;2023-07-20T12:18:41;4.53;;;1.67;;
71395;SDS011;59888;55.814;37.132;2023-07-20T12:21:08;4.28;;;1.30;;
71395;SDS011;59888;55.814;37.132;2023-07-20T12:23:35;3.05;;;1.58;;
71395;SDS011;59888;55.814;37.132;2023-07-20T12:26:05;2.67;;;1.35;;
71395;SDS011;59888;55.814;37.132;2023-07-20T12:28:35;3.75;;;1.40;;
71395;SDS011;59888;55.814;37.132;2023-07-20T12:31:05;4.03;;;1.27;;
71395;SDS011;59888;55.814;37.132;2023-07-20T12:33:32;2.40;;;1.30;;
71395;SDS011;59888;55.814;37.132;2023-07-20T12:36:00;3.55;;;1.02;;
71395;SDS011;59888;55.814;37.132;2023-07-20T12:38:27;4.72;;;1.10;;
71395;SDS011;59888;55.814;37.132;2023-07-20T12:41:00;2.72;;;1.30;;
71395;SDS011;59888;55.814;37.132;2023-07-20T12:43:27;2.05;;;1.10;;
71395;SDS011;59888;55.814;37.132;2023-07-20T12:45:54;3.35;;;1.40;;
71395;SDS011;59888;55.814;37.132;2023-07-20T12:48:20;5.68;;;1.17;;
71395;SDS011;59888;55.814;37.132;2023-07-20T12:50:46;3.80;;;1.02;;
71395;SDS011;59888;55.814;37.132;2023-07-20T12:53:12;2.13;;;0.90;;
71395;SDS011;59888;55.814;37.132;2023-07-20T12:55:38;4.32;;;1.25;;
71395;SDS011;59888;55.814;37.132;2023-07-20T12:58:06;3.25;;;1.20;;
71395;SDS011;59888;55.814;37.132;2023-07-20T13:00:32;1.40;;;0.90;;
71395;SDS011;59888;55.814;37.132;2023-07-20T13:02:59;1.70;;;0.90;;
71395;SDS011;59888;55.814;37.132;2023-07-20T13:05:25;1.75;;;1.00;;
71395;SDS011;59888;55.814;37.132;2023-07-20T13:07:51;4.88;;;1.05;;
71395;SDS011;59888;55.814;37.132;2023-07-20T13:10:17;2.15;;;0.90;;
71395;SDS011;59888;55.814;37.132;2023-07-20T13:12:44;2.25;;;1.10;;
71395;SDS011;59888;55.814;37.132;2023-07-20T13:15:10;4.88;;;1.20;;
71395;SDS011;59888;55.814;37.132;2023-07-20T13:17:38;3.42;;;1.05;;
71395;SDS011;59888;55.814;37.132;2023-07-20T13:20:05;2.45;;;0.98;;
71395;SDS011;59888;55.814;37.132;2023-07-20T13:22:33;2.33;;;1.10;;
71395;SDS011;59888;55.814;37.132;2023-07-20T13:25:00;1.92;;;0.90;;
71395;SDS011;59888;55.814;37.132;2023-07-20T13:27:26;3.28;;;1.15;;
71395;SDS011;59888;55.814;37.132;2023-07-20T13:29:52;2.35;;;1.25;;
71395;SDS011;59888;55.814;37.132;2023-07-20T13:32:19;3.85;;;1.52;;
71395;SDS011;59888;55.814;37.132;2023-07-20T13:34:46;4.57;;;1.30;;
71395;SDS011;59888;55.814;37.132;2023-07-20T13:37:12;3.47;;;1.30;;
71395;SDS011;59888;55.814;37.132;2023-07-20T13:39:38;3.22;;;1.10;;
71395;SDS011;59888;55.814;37.132;2023-07-20T13:42:05;3.53;;;0.93;;
71395;SDS011;59888;55.814;37.132;2023-07-20T13:44:31;4.53;;;1.30;;
71395;SDS011;59888;55.814;37.132;2023-07-20T13:46:58;4.80;;;1.00;;
71395;SDS011;59888;55.814;37.132;2023-07-20T13:49:24;3.30;;;1.10;;
71395;SDS011;59888;55.814;37.132;2023-07-20T13:51:50;2.00;;;1.00;;
71395;SDS011;59888;55.814;37.132;2023-07-20T13:54:16;2.78;;;1.25;;
71395;SDS011;59888;55.814;37.132;2023-07-20T13:56:42;2.20;;;1.63;;
71395;SDS011;59888;55.814;37.132;2023-07-20T13:59:09;2.25;;;1.20;;
71395;SDS011;59888;55.814;37.132;2023-07-20T14:01:35;2.75;;;1.02;;
71395;SDS011;59888;55.814;37.132;2023-07-20T14:04:02;1.75;;;1.10;;
71395;SDS011;59888;55.814;37.132;2023-07-20T14:06:29;2.63;;;1.00;;
71395;SDS011;59888;55.814;37.132;2023-07-20T14:08:56;3.88;;;1.40;;
71395;SDS011;59888;55.814;37.132;2023-07-20T14:11:23;3.05;;;1.10;;
71395;SDS011;59888;55.814;37.132;2023-07-20T14:13:49;4.22;;;1.38;;
71395;SDS011;59888;55.814;37.132;2023-07-20T14:16:16;3.97;;;1.30;;
71395;SDS011;59888;55.814;37.132;2023-07-20T14:18:42;2.78;;;1.10;;
71395;SDS011;59888;55.814;37.132;2023-07-20T14:21:11;4.75;;;1.20;;
71395;SDS011;59888;55.814;37.132;2023-07-20T14:23:37;8.07;;;1.55;;
71395;SDS011;59888;55.814;37.132;2023-07-20T14:26:04;6.13;;;1.30;;
71395;SDS011;59888;55.814;37.132;2023-07-20T14:28:31;2.85;;;1.08;;
71395;SDS011;59888;55.814;37.132;2023-07-20T14:30:57;3.92;;;1.10;;
71395;SDS011;59888;55.814;37.132;2023-07-20T14:33:24;3.53;;;1.10;;
71395;SDS011;59888;55.814;37.132;2023-07-20T14:35:50;2.80;;;1.20;;
71395;SDS011;59888;55.814;37.132;2023-07-20T14:38:16;4.15;;;1.40;;
71395;SDS011;59888;55.814;37.132;2023-07-20T14:40:42;2.50;;;1.10;;
71395;SDS011;59888;55.814;37.132;2023-07-20T14:43:13;2.97;;;1.00;;
71395;SDS011;59888;55.814;37.132;2023-07-20T14:45:40;2.15;;;0.95;;
71395;SDS011;59888;55.814;37.132;2023-07-20T14:48:07;5.55;;;1.20;;
71395;SDS011;59888;55.814;37.132;2023-07-20T14:50:33;1.77;;;0.90;;
71395;SDS011;59888;55.814;37.132;2023-07-20T14:53:00;2.00;;;0.90;;
71395;SDS011;59888;55.814;37.132;2023-07-20T14:55:26;4.28;;;1.20;;